Time;durP1;ratioP1;P1;durP2;ratioP2;P2;SDS_P1;SDS_P2;PMS_P1;PMS_P2;Temp;Humidity;BMP_temperature;BMP_pressure;BME280_temperature;BME280_humidity;BME280_pressure;Samples;Min_cycle;Max_cycle;Signal;HPM_P1;HPM_P2
2022/05/01 00:00:56;;;;;;;;;;;;;;;17.52;44.49;102671.22;4967234;28;19918;-79
2022/05/01 00:05:58;;;;;;;;;;;;;;;17.51;44.44;102670.34;5567961;23;19985;-79
2022/05/01 00:08:23;;;;;;;;;;;;;;;17.51;44.41;102666.84;4987526;28;19933;-79
2022/05/01 00:10:48;;;;;;;;;;;;;;;17.51;44.47;102666.84;4971076;28;19918;-79
2022/05/01 00:13:15;;;;;;;;;;;;;;;17.50;44.67;102658.19;4987838;28;20000;-78
2022/05/01 00:15:40;;;;;;;;;;;;;;;17.51;44.64;102656.44;4993012;28;19926;-78
2022/05/01 00:18:05;;;;;;;;;;;;;;;17.49;44.55;102656.44;5012283;28;19914;-78
2022/05/01 00:20:31;;;;;;;;;;;;;;;17.49;44.53;102656.44;4992722;28;19925;-78
2022/05/01 00:22:56;;;;;;;;;;;;;;;17.48;44.48;102652.97;4991356;28;19914;-78
2022/05/01 00:25:21;;;;;;;;;;;;;;;17.48;44.36;102649.47;4973788;28;19918;-78
2022/05/01 00:27:47;;;;;;;;;;;;;;;17.48;44.51;102650.34;4989332;28;19917;-78
2022/05/01 00:30:13;;;;;;;;;;;;;;;17.49;44.42;102656.44;4974607;28;19917;-77
2022/05/01 00:38:06;;;;;;;;;;;;;;;17.47;44.47;102640.78;4991884;28;19909;-87
2022/05/01 00:40:31;;;;;;;;;;;;;;;17.47;44.59;102639.91;4987042;28;19902;-86
2022/05/01 00:43:00;;;;;;;;;;;;;;;17.46;44.63;102635.53;4988187;28;19912;-85
2022/05/01 00:45:26;;;;;;;;;;;;;;;17.46;44.45;102633.84;5003926;28;19922;-87
2022/05/01 00:47:51;;;;;;;;;;;;;;;17.45;44.35;102629.47;5003859;28;19980;-87
2022/05/01 00:50:17;;;;;;;;;;;;;;;17.45;44.66;102623.38;5003700;28;19905;-87
2022/05/01 00:52:42;;;;;;;;;;;;;;;17.45;44.43;102628.59;5003440;28;19922;-85
2022/05/01 01:23:32;;;;;;;;;;;;;;;17.42;44.38;102615.50;5497688;23;19937;-87
2022/05/01 02:38:21;;;;;;;;;;;;;;;17.31;44.27;102586.69;5627456;23;19926;-86
2022/05/01 02:40:47;;;;;;;;;;;;;;;17.31;44.42;102591.91;4979043;28;19953;-86
2022/05/01 02:43:12;;;;;;;;;;;;;;;17.31;44.34;102589.28;4979305;29;19923;-87
2022/05/01 02:45:38;;;;;;;;;;;;;;;17.30;44.52;102586.66;4979154;29;19918;-86
2022/05/01 02:48:04;;;;;;;;;;;;;;;17.29;44.46;102585.78;4978749;28;19942;-86
2022/05/01 02:50:30;;;;;;;;;;;;;;;17.30;44.26;102584.91;5052905;23;19922;-78
2022/05/01 02:52:55;;;;;;;;;;;;;;;17.29;44.34;102591.00;4953546;28;19926;-78
2022/05/01 02:55:21;;;;;;;;;;;;;;;17.28;44.45;102584.88;4986887;28;19915;-79
2022/05/01 02:57:46;;;;;;;;;;;;;;;17.28;44.31;102584.00;4955179;28;19925;-78
2022/05/01 03:00:16;;;;;;;;;;;;;;;17.28;44.46;102578.81;4973603;28;19918;-78
2022/05/01 03:02:42;;;;;;;;;;;;;;;17.28;44.52;102581.41;4971570;28;19918;-78
2022/05/01 03:05:08;;;;;;;;;;;;;;;17.28;44.34;102584.88;4957971;28;19918;-78
2022/05/01 03:07:33;;;;;;;;;;;;;;;17.25;44.48;102579.63;4958333;28;19922;-78
2022/05/01 03:09:58;;;;;;;;;;;;;;;17.27;44.30;102579.66;4958499;28;20302;-78
2022/05/01 03:12:24;;;;;;;;;;;;;;;17.26;44.44;102575.28;4956628;28;19918;-78
2022/05/01 03:14:50;;;;;;;;;;;;;;;17.25;44.13;102576.16;4952904;28;19918;-78
2022/05/01 03:17:15;;;;;;;;;;;;;;;17.26;44.36;102577.91;4968078;28;19919;-78
2022/05/01 03:22:24;;;;;;;;;;;;;;;17.25;44.33;102571.81;4971375;28;20400;-78
2022/05/01 03:24:50;;;;;;;;;;;;;;;17.25;44.17;102574.44;4968562;28;19918;-77
2022/05/01 03:27:16;;;;;;;;;;;;;;;17.25;44.39;102573.56;4953439;28;20369;-77
2022/05/01 03:29:41;;;;;;;;;;;;;;;17.24;44.39;102569.19;4952441;28;19933;-78
2022/05/01 03:32:07;;;;;;;;;;;;;;;17.24;44.46;102577.00;4951812;28;19973;-78
2022/05/01 03:34:33;;;;;;;;;;;;;;;17.24;44.49;102566.59;4970378;28;20365;-77
2022/05/01 03:36:59;;;;;;;;;;;;;;;17.23;44.46;102570.91;4970207;28;19914;-78
2022/05/01 03:39:24;;;;;;;;;;;;;;;17.23;44.41;102568.31;4968297;28;19925;-78
2022/05/01 03:41:49;;;;;;;;;;;;;;;17.22;44.38;102569.19;4968283;28;19918;-78
2022/05/01 03:44:14;;;;;;;;;;;;;;;17.21;44.20;102561.34;4952347;28;20312;-78
2022/05/01 03:46:40;;;;;;;;;;;;;;;17.22;44.45;102563.06;4950778;28;20285;-78
2022/05/01 03:49:06;;;;;;;;;;;;;;;17.22;44.26;102566.56;4949882;28;19940;-78
2022/05/01 03:51:34;;;;;;;;;;;;;;;17.21;44.47;102567.41;4969772;28;19986;-78
2022/05/01 03:54:02;;;;;;;;;;;;;;;17.22;44.29;102570.88;4966464;28;19940;-78
2022/05/01 03:56:27;;;;;;;;;;;;;;;17.20;44.38;102565.66;4965770;28;19919;-78
2022/05/01 03:58:52;;;;;;;;;;;;;;;17.20;44.13;102568.28;4949629;28;20006;-78
2022/05/01 04:01:18;;;;;;;;;;;;;;;17.20;44.34;102569.97;4966059;28;19926;-78
2022/05/01 04:03:43;;;;;;;;;;;;;;;17.20;44.36;102565.66;4966385;28;19957;-78
2022/05/01 04:06:08;;;;;;;;;;;;;;;17.19;44.41;102569.09;4965488;28;20378;-78
2022/05/01 04:08:33;;;;;;;;;;;;;;;17.20;44.42;102569.97;4964741;28;19922;-78
2022/05/01 04:11:02;;;;;;;;;;;;;;;17.19;44.25;102561.28;4964774;28;19923;-78
2022/05/01 04:13:27;;;;;;;;;;;;;;;17.20;44.29;102573.47;4983836;28;19915;-78
2022/05/01 04:15:52;;;;;;;;;;;;;;;17.20;44.43;102567.38;4966533;28;19924;-78
2022/05/01 04:18:18;;;;;;;;;;;;;;;17.19;44.36;102569.09;4968619;28;19984;-78
2022/05/01 04:20:45;;;;;;;;;;;;;;;17.19;44.13;102563.91;4968807;28;19918;-77
2022/05/01 04:23:10;;;;;;;;;;;;;;;17.19;44.20;102563.03;4986772;28;19937;-78
2022/05/01 04:25:36;;;;;;;;;;;;;;;17.19;44.32;102563.91;4984649;28;19914;-78
2022/05/01 04:28:02;;;;;;;;;;;;;;;17.19;44.42;102568.22;4986211;28;19997;-78
2022/05/01 04:30:29;;;;;;;;;;;;;;;17.19;44.34;102568.22;4971144;28;19914;-77
2022/05/01 04:32:54;;;;;;;;;;;;;;;17.18;44.13;102569.97;4985686;28;19914;-78
2022/05/01 04:35:29;;;;;;;;;;;;;;;17.19;44.17;102569.09;4986750;28;19990;-77
2022/05/01 04:37:59;;;;;;;;;;;;;;;17.19;44.12;102571.69;4984015;28;19921;-78
2022/05/01 04:40:25;;;;;;;;;;;;;;;17.19;44.10;102570.84;4968915;28;19914;-77
2022/05/01 04:42:50;;;;;;;;;;;;;;;17.19;44.17;102570.84;4968514;28;19926;-77
2022/05/01 04:45:15;;;;;;;;;;;;;;;17.19;44.18;102574.31;4968839;28;19918;-78
2022/05/01 04:47:41;;;;;;;;;;;;;;;17.20;44.18;102576.06;4969731;28;19977;-78
2022/05/01 04:50:06;;;;;;;;;;;;;;;17.21;44.34;102584.75;4971039;28;19918;-77
2022/05/01 04:52:34;;;;;;;;;;;;;;;17.20;44.11;102578.69;4954073;28;20316;-77
2022/05/01 04:54:59;;;;;;;;;;;;;;;17.20;44.11;102586.47;4985456;28;19921;-78
2022/05/01 04:57:25;;;;;;;;;;;;;;;17.20;44.19;102583.88;4969470;28;19957;-78
2022/05/01 04:59:50;;;;;;;;;;;;;;;17.21;44.32;102584.75;4986570;28;19918;-77
2022/05/01 05:02:15;;;;;;;;;;;;;;;17.21;44.25;102596.03;4966632;28;19918;-77
2022/05/01 05:04:40;;;;;;;;;;;;;;;17.21;44.21;102596.03;4967069;28;19925;-77
2022/05/01 05:07:06;;;;;;;;;;;;;;;17.21;44.31;102593.41;4985315;28;19914;-77
2022/05/01 05:12:16;;;;;;;;;;;;;;;17.21;44.05;102588.22;4971237;28;20277;-77
2022/05/01 05:14:41;;;;;;;;;;;;;;;17.22;44.29;102596.91;4982955;28;19914;-77
2022/05/01 05:17:07;;;;;;;;;;;;;;;17.21;44.27;102598.63;4984560;28;19918;-77
2022/05/01 05:19:33;;;;;;;;;;;;;;;17.24;44.18;102603.88;4984274;28;19918;-77
2022/05/01 05:21:59;;;;;;;;;;;;;;;17.26;44.24;102606.53;4984903;28;19968;-78
2022/05/01 05:24:24;;;;;;;;;;;;;;;17.28;44.01;102604.81;4967831;28;19953;-77
2022/05/01 05:26:49;;;;;;;;;;;;;;;17.30;44.18;102610.06;4968236;28;19941;-77
2022/05/01 05:29:14;;;;;;;;;;;;;;;17.32;44.28;102611.84;4968687;28;19994;-77
2022/05/01 05:31:39;;;;;;;;;;;;;;;17.33;44.12;102610.13;4967109;28;19918;-77
2022/05/01 05:34:05;;;;;;;;;;;;;;;17.33;44.34;102613.59;4967233;28;19922;-77
2022/05/01 05:36:30;;;;;;;;;;;;;;;17.33;44.32;102611.00;4984073;28;19914;-78
2022/05/01 05:38:55;;;;;;;;;;;;;;;17.34;44.38;102610.16;4973474;28;19915;-78
2022/05/01 05:41:21;;;;;;;;;;;;;;;17.33;44.39;102613.59;4974049;28;19924;-78
2022/05/01 05:43:46;;;;;;;;;;;;;;;17.33;44.25;102618.78;4990611;28;20292;-78
2022/05/01 05:46:12;;;;;;;;;;;;;;;17.32;44.34;102614.44;4974680;28;19958;-78
2022/05/01 05:48:37;;;;;;;;;;;;;;;17.33;44.33;102618.78;4973705;28;19960;-78
2022/05/01 05:51:06;;;;;;;;;;;;;;;17.33;44.26;102615.31;4973886;28;19933;-78
2022/05/01 05:53:32;;;;;;;;;;;;;;;17.33;44.23;102618.78;4973008;28;20272;-78
2022/05/01 05:55:57;;;;;;;;;;;;;;;17.33;44.41;102621.41;4989324;28;20008;-78
2022/05/01 05:58:22;;;;;;;;;;;;;;;17.34;44.37;102615.38;4988984;28;19978;-78
2022/05/01 06:00:47;;;;;;;;;;;;;;;17.34;44.18;102617.09;4972261;28;19942;-78
2022/05/01 06:03:13;;;;;;;;;;;;;;;17.33;44.39;102618.78;4971306;28;19941;-78
2022/05/01 06:05:38;;;;;;;;;;;;;;;17.33;44.15;102613.59;4986508;28;20262;-78
2022/05/01 06:08:04;;;;;;;;;;;;;;;17.36;44.25;102626.69;4970276;28;19923;-78
2022/05/01 06:10:29;;;;;;;;;;;;;;;17.39;44.11;102621.53;4970501;28;19985;-77
2022/05/01 06:12:54;;;;;;;;;;;;;;;17.39;43.99;102621.53;4970291;28;19918;-77
2022/05/01 06:15:20;;;;;;;;;;;;;;;17.38;44.28;102629.31;4986204;28;20024;-77
2022/05/01 06:17:45;;;;;;;;;;;;;;;17.39;44.20;102629.34;4969683;28;19968;-78
2022/05/01 06:20:10;;;;;;;;;;;;;;;17.41;44.26;102634.56;4969291;28;19922;-77
2022/05/01 06:22:35;;;;;;;;;;;;;;;17.40;44.15;102638.91;4985560;28;19914;-78
2022/05/01 06:25:01;;;;;;;;;;;;;;;17.39;44.39;102631.94;4969454;28;19924;-77
2022/05/01 06:27:26;;;;;;;;;;;;;;;17.39;44.20;102631.94;4969482;28;20285;-77
2022/05/01 06:29:51;;;;;;;;;;;;;;;17.40;44.13;102632.84;4969390;28;19985;-77
2022/05/01 06:32:17;;;;;;;;;;;;;;;17.41;44.19;102631.97;4968056;28;19961;-78
2022/05/01 06:34:42;;;;;;;;;;;;;;;17.41;43.92;102631.97;4966947;28;19929;-78
2022/05/01 06:37:08;;;;;;;;;;;;;;;17.41;44.19;102622.44;4951889;28;20432;-78
2022/05/01 06:39:33;;;;;;;;;;;;;;;17.42;44.05;102624.22;4966579;28;19918;-78
2022/05/01 06:41:58;;;;;;;;;;;;;;;17.43;43.89;102627.69;4966449;28;19919;-78
2022/05/01 06:44:23;;;;;;;;;;;;;;;17.43;43.89;102625.06;4966408;28;20483;-78
2022/05/01 06:46:49;;;;;;;;;;;;;;;17.46;43.95;102625.13;4966834;28;19918;-78
2022/05/01 06:49:14;;;;;;;;;;;;;;;17.46;44.11;102620.81;4966921;28;19962;-78
2022/05/01 06:51:39;;;;;;;;;;;;;;;17.47;43.96;102625.16;4981874;28;19923;-78
2022/05/01 06:54:07;;;;;;;;;;;;;;;17.48;44.00;102624.34;4967174;28;20288;-78
2022/05/01 06:56:32;;;;;;;;;;;;;;;17.48;44.07;102626.03;4983050;28;19918;-78
2022/05/01 06:58:57;;;;;;;;;;;;;;;17.49;43.89;102622.59;4982844;28;19921;-78
2022/05/01 07:01:23;;;;;;;;;;;;;;;17.50;43.81;102615.66;4966080;28;19925;-78
2022/05/01 07:03:48;;;;;;;;;;;;;;;17.52;43.88;102619.16;4983070;28;20049;-78
2022/05/01 07:06:13;;;;;;;;;;;;;;;17.53;43.80;102614.00;4982270;28;19929;-78
2022/05/01 07:08:38;;;;;;;;;;;;;;;17.56;43.83;102610.56;4966342;28;20029;-78
2022/05/01 07:11:03;;;;;;;;;;;;;;;17.57;43.99;102612.31;4965906;28;20300;-78
2022/05/01 07:13:29;;;;;;;;;;;;;;;17.57;43.90;102614.91;4964914;28;19918;-78
2022/05/01 07:15:54;;;;;;;;;;;;;;;17.58;43.95;102608.88;4980260;28;19968;-78
2022/05/01 07:18:20;;;;;;;;;;;;;;;17.58;43.99;102607.16;4964192;28;19918;-78
2022/05/01 07:20:47;;;;;;;;;;;;;;;17.59;43.99;102605.41;4978382;28;20013;-78
2022/05/01 07:23:12;;;;;;;;;;;;;;;17.59;44.15;102611.50;4963335;28;19918;-78
2022/05/01 07:25:37;;;;;;;;;;;;;;;17.59;43.86;102610.63;4962028;28;19925;-78
2022/05/01 07:28:02;;;;;;;;;;;;;;;17.59;43.70;102605.41;4960513;28;19923;-78
2022/05/01 07:30:28;;;;;;;;;;;;;;;17.62;43.83;102613.28;4962698;28;19918;-78
2022/05/01 07:32:53;;;;;;;;;;;;;;;17.64;43.96;102614.22;4962998;28;19925;-78
2022/05/01 07:35:18;;;;;;;;;;;;;;;17.64;43.73;102609.00;4962498;28;19919;-78
2022/05/01 07:37:44;;;;;;;;;;;;;;;17.64;43.67;102615.06;4960527;28;19918;-78
2022/05/01 07:40:09;;;;;;;;;;;;;;;17.62;43.82;102605.50;4963449;28;19921;-78
2022/05/01 07:42:34;;;;;;;;;;;;;;;17.60;43.90;102613.25;4963255;28;19951;-78
2022/05/01 07:45:00;;;;;;;;;;;;;;;17.59;43.79;102606.28;4964223;28;19918;-78
2022/05/01 07:47:25;;;;;;;;;;;;;;;17.59;43.79;102611.50;4964185;28;19919;-78
2022/05/01 07:49:50;;;;;;;;;;;;;;;17.57;43.93;102608.00;4963696;28;19925;-78
2022/05/01 07:52:16;;;;;;;;;;;;;;;17.58;43.91;102603.69;4968476;28;20020;-78
2022/05/01 07:54:41;;;;;;;;;;;;;;;17.56;43.92;102613.19;4967789;28;19919;-78
2022/05/01 07:57:07;;;;;;;;;;;;;;;17.56;43.93;102613.19;4968119;28;19918;-78
2022/05/01 07:59:33;;;;;;;;;;;;;;;17.54;44.18;102614.88;4984988;28;20345;-78
2022/05/01 08:01:58;;;;;;;;;;;;;;;17.55;43.88;102603.59;4985664;28;20021;-78
2022/05/01 08:04:29;;;;;;;;;;;;;;;17.56;44.00;102610.56;4968051;28;19922;-78
2022/05/01 08:06:58;;;;;;;;;;;;;;;17.56;44.07;102615.78;4965189;28;20383;-78
2022/05/01 08:09:24;;;;;;;;;;;;;;;17.56;43.99;102610.56;4979613;28;19918;-78
2022/05/01 08:11:49;;;;;;;;;;;;;;;17.56;43.95;102607.97;4962483;28;19914;-78
2022/05/01 08:14:14;;;;;;;;;;;;;;;17.56;43.96;102610.56;4979656;28;19918;-78
2022/05/01 08:16:40;;;;;;;;;;;;;;;17.55;44.10;102611.41;4963170;28;19918;-78
2022/05/01 08:21:49;;;;;;;;;;;;;;;17.58;44.08;102609.75;4988348;28;19969;-78
2022/05/01 08:24:15;;;;;;;;;;;;;;;17.59;44.07;102608.88;4969830;28;19922;-78
2022/05/01 08:26:41;;;;;;;;;;;;;;;17.60;44.16;102601.97;4979896;28;20010;-78
2022/05/01 08:29:06;;;;;;;;;;;;;;;17.63;43.94;102609.84;4963741;28;20270;-77
2022/05/01 08:31:32;;;;;;;;;;;;;;;17.64;43.98;102599.44;4963234;28;19922;-78
2022/05/01 08:33:57;;;;;;;;;;;;;;;17.66;43.92;102602.09;4964330;28;20021;-78
2022/05/01 08:36:22;;;;;;;;;;;;;;;17.68;44.12;102600.38;4980095;28;20384;-77
2022/05/01 08:38:47;;;;;;;;;;;;;;;17.70;43.92;102601.28;4978152;28;19965;-78
2022/05/01 08:41:13;;;;;;;;;;;;;;;17.73;43.83;102595.28;4961918;28;19918;-78
2022/05/01 08:43:38;;;;;;;;;;;;;;;17.76;43.87;102604.00;4961377;28;19922;-78
2022/05/01 08:46:09;;;;;;;;;;;;;;;17.79;43.92;102603.16;4961286;28;19986;-78
2022/05/01 08:48:53;;;;;;;;;;;;;;;17.80;43.94;102598.00;4961376;28;20381;-78
2022/05/01 08:51:20;;;;;;;;;;;;;;;17.80;44.00;102589.31;4961299;28;19930;-78
2022/05/01 08:53:45;;;;;;;;;;;;;;;17.80;43.99;102584.97;4946859;28;20008;-78
2022/05/01 08:56:10;;;;;;;;;;;;;;;17.78;43.88;102586.66;4963728;28;19918;-78
2022/05/01 08:58:39;;;;;;;;;;;;;;;17.79;43.82;102590.16;4964105;28;20384;-78
2022/05/01 09:01:05;;;;;;;;;;;;;;;17.81;43.98;102589.34;4963562;28;19918;-78
2022/05/01 09:03:30;;;;;;;;;;;;;;;17.83;43.98;102592.00;4962233;28;19918;-78
2022/05/01 09:05:55;;;;;;;;;;;;;;;17.83;43.74;102584.19;4963042;28;19918;-77
2022/05/01 09:08:22;;;;;;;;;;;;;;;17.83;43.84;102592.88;4965063;28;19922;-77
2022/05/01 09:10:48;;;;;;;;;;;;;;;17.84;43.98;102588.56;4982917;28;20009;-78
2022/05/01 09:13:13;;;;;;;;;;;;;;;17.83;43.92;102585.06;4979361;28;19968;-78
2022/05/01 09:15:43;;;;;;;;;;;;;;;17.84;43.78;102589.41;4979121;28;19981;-77
2022/05/01 09:18:14;;;;;;;;;;;;;;;17.84;43.53;102593.75;4965915;28;19914;-77
2022/05/01 09:20:58;;;;;;;;;;;;;;;17.83;43.81;102597.19;4946441;28;20314;-77
2022/05/01 09:23:41;;;;;;;;;;;;;;;17.83;43.92;102590.28;4960621;28;19918;-77
2022/05/01 09:26:10;;;;;;;;;;;;;;;17.84;43.73;102591.16;4960378;28;19914;-79
2022/05/01 09:28:36;;;;;;;;;;;;;;;17.84;43.74;102594.63;4960452;28;19980;-78
2022/05/01 09:31:02;;;;;;;;;;;;;;;17.82;43.87;102588.50;4961184;28;19914;-78
2022/05/01 09:33:29;;;;;;;;;;;;;;;17.81;43.80;102594.56;4980155;28;19937;-78
2022/05/01 09:35:55;;;;;;;;;;;;;;;17.82;44.04;102598.94;4963762;28;19922;-78
2022/05/01 09:38:23;;;;;;;;;;;;;;;17.80;43.87;102591.91;4964351;28;19921;-78
2022/05/01 09:40:54;;;;;;;;;;;;;;;17.80;43.78;102590.19;4947076;28;19921;-77
2022/05/01 09:43:38;;;;;;;;;;;;;;;17.81;43.75;102598.84;4963025;28;19914;-78
2022/05/01 09:46:16;;;;;;;;;;;;;;;17.80;43.85;102594.53;4961427;28;19914;-78
2022/05/01 09:48:43;;;;;;;;;;;;;;;17.80;43.76;102591.91;4960781;28;19973;-78
2022/05/01 09:51:16;;;;;;;;;;;;;;;17.79;43.88;102590.16;4959871;28;19929;-78
2022/05/01 09:53:42;;;;;;;;;;;;;;;17.79;43.76;102591.03;4963317;28;20009;-78
2022/05/01 09:56:08;;;;;;;;;;;;;;;17.79;43.88;102604.06;4967159;28;20000;-78
2022/05/01 09:58:33;;;;;;;;;;;;;;;17.79;43.76;102598.84;4967181;28;20377;-78
2022/05/01 10:01:06;;;;;;;;;;;;;;;17.79;43.70;102597.97;4966494;28;19983;-78
2022/05/01 10:03:32;;;;;;;;;;;;;;;17.79;43.77;102588.44;4965226;28;19985;-78
2022/05/01 10:05:59;;;;;;;;;;;;;;;17.79;43.78;102590.16;4967177;28;19989;-77
2022/05/01 10:08:24;;;;;;;;;;;;;;;17.78;43.72;102586.66;4970221;28;19918;-78
2022/05/01 10:10:53;;;;;;;;;;;;;;;17.80;43.60;102586.72;4987998;28;19938;-78
2022/05/01 10:13:19;;;;;;;;;;;;;;;17.80;43.86;102584.09;4970632;28;20004;-77
2022/05/01 10:15:45;;;;;;;;;;;;;;;17.79;43.61;102580.63;4969169;28;20026;-77
2022/05/01 10:18:11;;;;;;;;;;;;;;;17.79;43.80;102583.22;4967003;28;19918;-79
2022/05/01 10:20:37;;;;;;;;;;;;;;;17.79;43.84;102583.22;4952986;28;19918;-77
2022/05/01 10:23:03;;;;;;;;;;;;;;;17.79;43.59;102578.03;4970680;28;19969;-77
2022/05/01 10:25:29;;;;;;;;;;;;;;;17.79;43.59;102580.63;4985942;28;19921;-77
2022/05/01 10:28:05;;;;;;;;;;;;;;;17.80;43.57;102568.47;4985000;28;20332;-77
2022/05/01 10:33:33;;;;;;;;;;;;;;;17.79;43.61;102572.81;4985506;28;20374;-78
2022/05/01 10:36:21;;;;;;;;;;;;;;;17.79;43.61;102565.00;4967206;28;20009;-78
2022/05/01 10:39:01;;;;;;;;;;;;;;;17.78;43.50;102558.03;4983759;28;20016;-78
2022/05/01 10:41:28;;;;;;;;;;;;;;;17.78;43.48;102550.22;4960533;28;19969;-78
2022/05/01 10:43:55;;;;;;;;;;;;;;;17.78;43.39;102555.41;4978738;28;19915;-78
2022/05/01 10:46:20;;;;;;;;;;;;;;;17.78;43.38;102547.59;4964156;28;20284;-78
2022/05/01 10:48:46;;;;;;;;;;;;;;;17.79;43.39;102551.09;4965056;28;19925;-78
2022/05/01 10:51:38;;;;;;;;;;;;;;;17.78;43.31;102550.22;4965353;28;19933;-78
2022/05/01 10:54:10;;;;;;;;;;;;;;;17.78;43.05;102539.81;4965774;28;19914;-78
2022/05/01 10:56:35;;;;;;;;;;;;;;;17.78;43.45;102539.81;4983523;28;19914;-78
2022/05/01 10:59:19;;;;;;;;;;;;;;;17.78;43.46;102547.59;4967826;28;19914;-78
2022/05/01 11:01:52;;;;;;;;;;;;;;;17.78;43.30;102534.59;4965840;28;19921;-78
2022/05/01 11:04:19;;;;;;;;;;;;;;;17.79;43.17;102536.34;4950928;28;19987;-78
2022/05/01 11:06:45;;;;;;;;;;;;;;;17.78;43.39;102534.59;4970279;28;19925;-77
2022/05/01 11:09:13;;;;;;;;;;;;;;;17.79;43.25;102525.03;4987085;28;19918;-78
2022/05/01 11:11:39;;;;;;;;;;;;;;;17.78;43.24;102524.19;4966503;28;19921;-78
2022/05/01 11:14:04;;;;;;;;;;;;;;;17.78;43.12;102521.56;4967561;28;19965;-78
2022/05/01 11:16:48;;;;;;;;;;;;;;;17.78;43.10;102521.56;4978155;28;19914;-78
2022/05/01 11:19:13;;;;;;;;;;;;;;;17.78;43.20;102521.56;4976612;28;20340;-78
2022/05/01 11:21:39;;;;;;;;;;;;;;;17.79;43.19;102517.22;4976535;28;19941;-78
2022/05/01 11:24:05;;;;;;;;;;;;;;;17.79;43.23;102509.41;4961751;28;19918;-78
2022/05/01 11:26:30;;;;;;;;;;;;;;;17.79;43.15;102505.13;4965972;28;20296;-78
2022/05/01 11:29:13;;;;;;;;;;;;;;;17.79;43.22;102502.50;4962979;28;19918;-77
2022/05/01 11:31:39;;;;;;;;;;;;;;;17.80;43.16;102504.25;4962148;28;19918;-76
2022/05/01 11:34:16;;;;;;;;;;;;;;;17.80;43.25;102501.63;4962935;28;20369;-77
2022/05/01 11:36:57;;;;;;;;;;;;;;;17.80;43.13;102501.63;4964211;28;19914;-77
2022/05/01 11:39:42;;;;;;;;;;;;;;;17.81;43.00;102493.00;4963940;28;19926;-77
2022/05/01 11:42:29;;;;;;;;;;;;;;;17.82;43.30;102489.56;4964797;28;19972;-78
2022/05/01 11:44:58;;;;;;;;;;;;;;;17.81;43.18;102495.59;4966523;28;19925;-78
2022/05/01 11:47:24;;;;;;;;;;;;;;;17.82;43.33;102486.94;4966772;28;19967;-77
2022/05/01 11:49:52;;;;;;;;;;;;;;;17.82;43.25;102497.38;4967083;28;19946;-77
2022/05/01 11:52:18;;;;;;;;;;;;;;;17.82;43.10;102483.47;4966618;28;19929;-77
2022/05/01 11:54:53;;;;;;;;;;;;;;;17.82;43.16;102480.88;4981478;28;20376;-78
2022/05/01 12:03:02;;;;;;;;;;;;;;;17.83;43.19;102465.28;4969780;28;19924;-77
2022/05/01 12:05:29;;;;;;;;;;;;;;;17.83;43.06;102470.50;4982034;28;20353;-77
2022/05/01 12:07:55;;;;;;;;;;;;;;;17.83;43.28;102464.38;4948883;28;19926;-78
2022/05/01 12:10:20;;;;;;;;;;;;;;;17.83;43.25;102465.28;4950171;28;19918;-78
2022/05/01 12:12:46;;;;;;;;;;;;;;;17.83;43.21;102460.06;4966391;28;20325;-78
2022/05/01 12:15:11;;;;;;;;;;;;;;;17.83;43.13;102452.25;4966728;28;19925;-78
2022/05/01 12:17:40;;;;;;;;;;;;;;;17.83;43.21;102449.66;4981744;28;19961;-78
2022/05/01 12:20:05;;;;;;;;;;;;;;;17.84;43.36;102450.53;4965999;28;19921;-78
2022/05/01 12:22:37;;;;;;;;;;;;;;;17.83;43.40;102447.06;4948931;28;19918;-78
2022/05/01 12:25:02;;;;;;;;;;;;;;;17.83;43.17;102441.84;4981651;28;20456;-78
2022/05/01 12:27:29;;;;;;;;;;;;;;;17.83;43.11;102436.63;4947066;28;19957;-78
2022/05/01 12:29:55;;;;;;;;;;;;;;;17.85;43.01;102434.03;4963105;28;20017;-78
2022/05/01 12:32:21;;;;;;;;;;;;;;;17.84;43.06;102435.78;4964060;28;20305;-78
2022/05/01 12:34:46;;;;;;;;;;;;;;;17.85;43.11;102432.28;4964728;28;19981;-78
2022/05/01 12:37:11;;;;;;;;;;;;;;;17.85;43.13;102437.50;4965057;28;19921;-78
2022/05/01 12:39:37;;;;;;;;;;;;;;;17.86;43.08;102435.81;4964639;28;19992;-78
2022/05/01 12:45:02;;;;;;;;;;;;;;;17.86;43.19;102420.19;4983205;28;19925;-78
2022/05/01 12:47:31;;;;;;;;;;;;;;;17.85;43.34;102424.47;4964143;28;19921;-78
2022/05/01 12:49:57;;;;;;;;;;;;;;;17.85;43.11;102427.09;4951596;28;19918;-78
2022/05/01 12:52:32;;;;;;;;;;;;;;;17.85;43.09;102423.63;4968070;28;19932;-78
2022/05/01 12:55:07;;;;;;;;;;;;;;;17.86;43.22;102426.25;4954083;28;19925;-78
2022/05/01 12:57:36;;;;;;;;;;;;;;;17.85;42.96;102415.81;4953238;28;19924;-78
2022/05/01 13:00:02;;;;;;;;;;;;;;;17.85;42.96;102419.28;4953257;28;19922;-78
2022/05/01 13:02:28;;;;;;;;;;;;;;;17.86;43.08;102422.78;4986840;28;19921;-78
2022/05/01 13:05:02;;;;;;;;;;;;;;;17.86;43.04;102422.78;4969434;28;20369;-78
2022/05/01 13:07:29;;;;;;;;;;;;;;;17.85;43.03;102421.88;4968731;28;19918;-78
2022/05/01 13:09:54;;;;;;;;;;;;;;;17.85;42.90;102413.19;4950977;28;19925;-78
2022/05/01 13:12:34;;;;;;;;;;;;;;;17.85;43.08;102411.47;4965467;28;19918;-77
2022/05/01 13:15:02;;;;;;;;;;;;;;;17.86;42.99;102409.75;4966177;28;19914;-78
2022/05/01 13:17:28;;;;;;;;;;;;;;;17.86;42.90;102414.97;4985005;28;20833;-78
2022/05/01 13:19:54;;;;;;;;;;;;;;;17.87;42.84;102412.38;4968157;28;20380;-78
2022/05/01 13:22:21;;;;;;;;;;;;;;;17.87;42.87;102414.97;4967114;28;19921;-78
2022/05/01 13:24:46;;;;;;;;;;;;;;;17.89;43.02;102417.59;4968205;28;19921;-78
2022/05/01 13:27:12;;;;;;;;;;;;;;;17.89;42.87;102421.06;4982358;28;19914;-78
2022/05/01 13:29:39;;;;;;;;;;;;;;;17.89;42.90;102423.69;4967352;28;19926;-76
2022/05/01 13:32:06;;;;;;;;;;;;;;;17.89;43.01;102413.25;4981888;28;19914;-78
2022/05/01 13:34:32;;;;;;;;;;;;;;;17.91;42.93;102415.91;4946366;28;19972;-78
2022/05/01 13:37:00;;;;;;;;;;;;;;;17.92;42.96;102417.66;4965026;28;19918;-77
2022/05/01 13:44:44;;;;;;;;;;;;;;;17.91;43.16;102415.03;4966833;28;19934;-77
2022/05/01 13:44:54;;;;;;;;;;;;;;;17.91;42.92;102415.91;4968839;28;19968;-78
2022/05/01 13:47:20;;;;;;;;;;;;;;;17.89;43.02;102418.47;4965192;28;20013;-78
2022/05/01 13:49:45;;;;;;;;;;;;;;;17.91;43.15;102415.03;4965415;28;19926;-78
2022/05/01 13:52:11;;;;;;;;;;;;;;;17.90;42.91;102411.56;4965728;28;19926;-78
2022/05/01 13:54:36;;;;;;;;;;;;;;;17.91;42.93;102410.69;4962984;28;19918;-78
2022/05/01 13:57:02;;;;;;;;;;;;;;;17.92;43.04;102414.16;4980674;28;20009;-78
2022/05/01 13:59:28;;;;;;;;;;;;;;;17.94;43.10;102409.84;4971697;28;19914;-78
2022/05/01 14:01:55;;;;;;;;;;;;;;;17.93;42.91;102411.59;4971632;28;19915;-78
2022/05/01 14:04:20;;;;;;;;;;;;;;;17.95;43.05;102416.81;4967796;28;19918;-78
2022/05/01 14:06:46;;;;;;;;;;;;;;;17.96;43.20;102409.00;4983056;28;20383;-78
2022/05/01 14:09:17;;;;;;;;;;;;;;;17.95;43.17;102409.88;4968253;28;20017;-78
2022/05/01 14:11:50;;;;;;;;;;;;;;;17.97;43.19;102412.53;4968523;28;19972;-78
2022/05/01 14:14:17;;;;;;;;;;;;;;;17.98;43.03;102409.03;4983181;28;19915;-78
2022/05/01 14:16:42;;;;;;;;;;;;;;;17.97;43.13;102402.97;4969595;28;20277;-78
2022/05/01 14:19:34;;;;;;;;;;;;;;;17.98;43.20;102403.84;4970972;28;20361;-78
2022/05/01 14:22:00;;;;;;;;;;;;;;;17.99;43.24;102397.78;4961445;28;19914;-78
2022/05/01 14:24:25;;;;;;;;;;;;;;;18.02;43.15;102395.22;4980863;28;20038;-79
2022/05/01 14:26:51;;;;;;;;;;;;;;;18.01;43.18;102393.47;4988160;28;19988;-78
2022/05/01 14:29:17;;;;;;;;;;;;;;;18.01;43.00;102391.75;4974037;28;19918;-78
2022/05/01 14:31:46;;;;;;;;;;;;;;;18.03;43.24;102390.03;4970866;28;19924;-78
2022/05/01 14:34:18;;;;;;;;;;;;;;;18.04;42.98;102388.28;4985722;28;19917;-78
2022/05/01 14:36:44;;;;;;;;;;;;;;;18.04;43.19;102388.28;4985155;28;19977;-78
2022/05/01 14:39:10;;;;;;;;;;;;;;;18.05;43.06;102387.41;4953253;28;19962;-78
2022/05/01 14:41:39;;;;;;;;;;;;;;;18.06;43.23;102383.97;4968525;28;20280;-78
2022/05/01 14:44:05;;;;;;;;;;;;;;;18.05;43.29;102388.31;4968508;28;19914;-78
2022/05/01 14:46:41;;;;;;;;;;;;;;;18.06;43.35;102390.06;4968052;28;20009;-78